Muskrat Dam Airport
CZMD : now visible

Airfield :











YOU CAN JOIN US ON...

 
LOGIN :

Register | Disclaimer

   EN    FR    IT 

 









Legend :    VFR   Marginal VFR   IFR   Intensive IFR   Very Intensive IFR
Visi :
Ceiling :
>= 8 km
>= 3000ft
5 to 8 km
1000 to 3000 ft
1500m to 5 km
500 to 1000 ft
800 to 1500m
200 to 500 ft
< 800m
< 200 ft
Symbols :   Thunderstorms  Fog  Heavy snow  Heavy precipitations  Wind > 20 kt






- Airport Elevation : 911 ft
- IATA code : MSA


CZMD - Muskrat Dam

CURRENT METAR :
  • 161100Z AUTO 36009KT 3SM BR OVC004 11/10 A2982 RMK SLP107

EXPIRED METARs :
  • 161000Z AUTO 36008KT 9SM OVC006 11/10 A2981 RMK SLP103
  • 160900Z AUTO 36008G15KT 9SM OVC006 11/10 A2979 RMK SLP098
  • 160800Z AUTO 36006KT 310V020 9SM OVC006 11/10 A2978 RMK SLP093
  • 160700Z AUTO 01007KT 330V040 9SM OVC006 12/12 A2977 RMK SLP088

TAF AMD TAF CZMD
Valid from the 16 at 10:00 until the 16 at 22:00 UTC


161052Z 1610/1622 35010KT 2SM BR OVC004
TEMPO 1610/1613 P6SM -SHRA SCT004 OVC008
BECMG 1613/1615 P6SM NSW OVC012
FM161500 01010G20KT P6SM OVC015
BECMG 1616/1618 OVC025
FM161800 01015KT P6SM OVC025
BECMG 1619/1621 BKN040
FM162100 01015KT P6SM BKN040 RMK FCST BASED ON AUTO OBS. NXT FCST BY 161600Z
CZWG FIR / North America



MET'MAP, your aeronautical weather chart ! - Copyright ORBIFLY December 2007 - Disclaimer

ORBIFLY MET'MAP TEAM :

Programming & Development : Alexandra Zaïnal
Original concept : Baudouin d'Aumeries
Technical & hardware support : Manuel Goepfert
Assistance : Marc-Olivier Méhu




SOURCES & CREDITS :

   NOAA       Earth
Advisory